This is the latest recevied weather packets stored in our database for station/object TA3HRJ-12. If no packets are shown the sender has not sent any weather packets the latest 10 day(s).
| Time | Temp. | Humidity | Pressure | Rain* | Wind** | Luminosity | Snow |
|---|---|---|---|---|---|---|---|
| 1788589200 | 25° C | 27% | 1032.3 hPa | - | - | - | - |
| 1788588300 | 26.11° C | 28% | 1032.3 hPa | - | - | - | - |
| 1788587400 | 24.44° C | 31% | 1032.3 hPa | - | - | - | - |
| 1788586500 | 23.89° C | 31% | 1032.3 hPa | - | - | - | - |
| 1788585600 | 23.33° C | 32% | 1032.2 hPa | - | - | - | - |
| 1788584700 | 23.33° C | 33% | 1032.2 hPa | - | - | - | - |
| 1788564898 | 21.67° C | 34% | 1030.3 hPa | - | - | - | - |
| 1788561297 | 22.22° C | 32% | 1030.4 hPa | - | - | - | - |
| 1788560397 | 21.67° C | 33% | 1030.4 hPa | - | - | - | - |
| 1788557697 | 23.33° C | 29% | 1030.4 hPa | - | - | - | - |
| 1788555897 | 23.89° C | 27% | 1030.3 hPa | - | - | - | - |
| 1788554997 | 23.89° C | 27% | 1030.2 hPa | - | - | - | - |
| 1788554097 | 23.33° C | 27% | 1030.2 hPa | - | - | - | - |
| 1788550496 | 24.44° C | 23% | 1029.9 hPa | - | - | - | - |
| 1788549596 | 24.44° C | 24% | 1029.9 hPa | - | - | - | - |
| 1788547796 | 25° C | 22% | 1029.7 hPa | - | - | - | - |
| 1788546896 | 25.56° C | 21% | 1029.6 hPa | - | - | - | - |
| 1788544196 | 26.11° C | 19% | 1029.3 hPa | - | - | - | - |
| 1788542395 | 26.67° C | 19% | 1028.9 hPa | - | - | - | - |
| 1788537895 | 27.22° C | 18% | 1027.9 hPa | - | - | - | - |
| 1788536995 | 28.33° C | 17% | 1027.9 hPa | - | - | - | - |
| 1788535195 | 29.44° C | 16% | 1027.6 hPa | - | - | - | - |
| 1788534294 | 30° C | 15% | 1027.7 hPa | - | - | - | - |
| 1788532494 | 31.11° C | 14% | 1027.6 hPa | - | - | - | - |
| 1788531594 | 31.67° C | 13% | 1027.6 hPa | - | - | - | - |
* Rain since midnight (hover to see other rain measurements)
** Current wind speed in m/s (hover to see current wind gust speed)